createdAt,value
2023-08-03T00:00:25.068Z,20.81
2023-08-03T00:02:19.502Z,20.79
2023-08-03T00:04:04.623Z,20.79
2023-08-03T00:05:52.872Z,20.77
2023-08-03T00:07:26.407Z,20.77
2023-08-03T00:09:07.273Z,20.76
2023-08-03T00:10:40.814Z,20.76
2023-08-03T00:12:26.026Z,20.77
2023-08-03T00:14:01.853Z,20.78
2023-08-03T00:15:35.540Z,20.71
2023-08-03T00:17:11.237Z,20.75
2023-08-03T00:18:59.814Z,20.68
2023-08-03T00:20:33.200Z,20.74
2023-08-03T00:22:02.339Z,20.74
2023-08-03T00:23:35.900Z,20.74
2023-08-03T00:25:09.080Z,20.75
2023-08-03T00:26:42.641Z,20.76
2023-08-03T00:28:37.345Z,20.76
2023-08-03T00:30:25.166Z,20.77
2023-08-03T00:32:05.296Z,20.76
2023-08-03T00:33:38.878Z,20.75
2023-08-03T00:35:12.099Z,20.74
2023-08-03T00:36:58.578Z,20.73
2023-08-03T00:38:31.995Z,20.72
2023-08-03T00:39:53.949Z,20.74
2023-08-03T00:41:18.119Z,20.74
2023-08-03T00:43:03.313Z,20.74
2023-08-03T00:44:39.436Z,20.72
2023-08-03T00:46:12.921Z,20.73
2023-08-03T00:47:57.856Z,20.72
2023-08-03T00:49:31.696Z,20.73
2023-08-03T00:51:04.824Z,20.72
2023-08-03T00:52:51.324Z,20.73
2023-08-03T00:54:44.807Z,20.74
2023-08-03T00:56:18.506Z,20.77
2023-08-03T00:57:53.875Z,20.78
2023-08-03T00:59:25.334Z,20.78
2023-08-03T01:00:56.614Z,20.78
2023-08-03T01:02:20.921Z,20.77
2023-08-03T01:03:58.128Z,20.77
2023-08-03T01:05:27.951Z,20.75
2023-08-03T01:07:01.112Z,20.72
2023-08-03T01:08:25.213Z,20.66
2023-08-03T01:10:05.995Z,20.48
2023-08-03T01:11:28.128Z,20.54
2023-08-03T01:12:51.888Z,20.48
2023-08-03T01:14:25.481Z,20.41
2023-08-03T01:16:06.198Z,20.35
2023-08-03T01:17:47.606Z,20.29
2023-08-03T01:19:25.179Z,20.22
2023-08-03T01:20:46.635Z,20.17
2023-08-03T01:22:11.105Z,20.10
2023-08-03T01:23:40.514Z,20.05
2023-08-03T01:25:17.134Z,20.00
2023-08-03T01:26:52.906Z,19.96
2023-08-03T01:28:26.541Z,19.94
2023-08-03T01:30:12.058Z,19.91
2023-08-03T01:32:01.657Z,19.90
2023-08-03T01:33:48.921Z,19.91
2023-08-03T01:35:15.210Z,19.91
2023-08-03T01:37:00.148Z,19.89
2023-08-03T01:38:36.107Z,19.89
2023-08-03T01:40:11.776Z,19.89
2023-08-03T01:41:49.584Z,19.92
2023-08-03T01:43:34.703Z,19.93
2023-08-03T01:45:03.819Z,19.94
2023-08-03T01:46:37.217Z,19.95
2023-08-03T01:48:10.703Z,19.95
2023-08-03T01:49:55.709Z,19.94
2023-08-03T01:51:37.187Z,19.95
2023-08-03T01:53:18.613Z,19.95
2023-08-03T01:55:03.702Z,19.93
2023-08-03T01:56:38.642Z,19.92
2023-08-03T01:58:24.432Z,19.93
2023-08-03T01:59:57.901Z,19.94
2023-08-03T02:01:43.281Z,19.96
2023-08-03T02:03:28.558Z,19.96
2023-08-03T02:05:10.168Z,19.95
2023-08-03T02:06:55.296Z,19.96
2023-08-03T02:08:40.282Z,19.95
2023-08-03T02:10:24.271Z,19.92
2023-08-03T02:12:05.884Z,19.90
2023-08-03T02:13:35.319Z,19.92
2023-08-03T02:15:20.188Z,19.92
2023-08-03T02:16:56.519Z,19.90
2023-08-03T02:18:51.542Z,19.89
2023-08-03T02:20:25.077Z,19.89
2023-08-03T02:21:58.476Z,19.88
2023-08-03T02:23:43.498Z,19.87
2023-08-03T02:25:18.777Z,19.88
2023-08-03T02:27:01.453Z,19.87
2023-08-03T02:28:35.075Z,19.88
2023-08-03T02:30:20.391Z,19.89
2023-08-03T02:31:56.125Z,19.89
2023-08-03T02:33:29.645Z,19.90
2023-08-03T02:35:14.618Z,19.91
2023-08-03T02:36:50.314Z,19.92
2023-08-03T02:38:23.891Z,19.89
2023-08-03T02:39:57.118Z,19.89
2023-08-03T02:41:44.357Z,19.88
2023-08-03T02:43:30.037Z,19.86
2023-08-03T02:45:14.980Z,19.87
2023-08-03T02:47:05.333Z,19.86
2023-08-03T02:48:49.918Z,19.84
2023-08-03T02:50:14.670Z,19.82
2023-08-03T02:51:47.780Z,19.77
2023-08-03T02:53:21.456Z,19.74
2023-08-03T02:55:02.093Z,19.70
2023-08-03T02:56:28.469Z,19.67
2023-08-03T02:58:01.684Z,19.64
2023-08-03T02:59:42.241Z,19.62
2023-08-03T03:01:36.463Z,19.59
2023-08-03T03:03:23.812Z,19.58
2023-08-03T03:05:08.949Z,19.59
2023-08-03T03:06:46.440Z,19.57
2023-08-03T03:08:27.241Z,19.58
2023-08-03T03:10:00.880Z,19.58
2023-08-03T03:11:35.224Z,19.58
2023-08-03T03:13:20.437Z,19.56
2023-08-03T03:14:44.299Z,19.56
2023-08-03T03:16:30.506Z,19.49
2023-08-03T03:18:15.552Z,19.55
2023-08-03T03:19:48.829Z,19.55
2023-08-03T03:21:24.043Z,19.56
2023-08-03T03:22:50.252Z,19.56
2023-08-03T03:24:35.941Z,19.57
2023-08-03T03:26:21.292Z,19.57
2023-08-03T03:28:06.640Z,19.59
2023-08-03T03:29:37.544Z,19.61
2023-08-03T03:31:22.875Z,19.65
2023-08-03T03:32:46.926Z,19.67
2023-08-03T03:34:10.708Z,19.70
2023-08-03T03:35:57.060Z,19.72
2023-08-03T03:37:30.994Z,19.74
2023-08-03T03:39:11.652Z,19.77
2023-08-03T03:40:45.333Z,19.78
2023-08-03T03:42:19.046Z,19.79
2023-08-03T03:43:52.490Z,19.80
2023-08-03T03:45:33.559Z,19.83
2023-08-03T03:47:07.309Z,19.86
2023-08-03T03:48:55.256Z,19.87
2023-08-03T03:50:37.330Z,19.90
2023-08-03T03:52:22.409Z,19.87
2023-08-03T03:53:44.120Z,19.97
2023-08-03T03:55:18.983Z,19.98
2023-08-03T03:57:04.015Z,20.01
2023-08-03T03:58:29.278Z,20.05
2023-08-03T04:00:09.992Z,20.09
2023-08-03T04:01:38.925Z,20.13
2023-08-03T04:03:12.185Z,20.16
2023-08-03T04:05:05.501Z,20.17
2023-08-03T04:06:35.196Z,20.21
2023-08-03T04:08:20.228Z,20.24
2023-08-03T04:10:00.658Z,20.26
2023-08-03T04:11:36.369Z,20.29
2023-08-03T04:13:00.117Z,20.31
2023-08-03T04:14:29.358Z,20.33
2023-08-03T04:16:05.464Z,20.36
2023-08-03T04:17:46.795Z,20.41
2023-08-03T04:19:29.794Z,20.44
2023-08-03T04:21:15.308Z,20.49
2023-08-03T04:22:48.998Z,20.52
2023-08-03T04:24:43.564Z,20.55
2023-08-03T04:26:17.546Z,20.57
2023-08-03T04:27:54.508Z,20.56
2023-08-03T04:29:28.466Z,20.57
2023-08-03T04:31:03.928Z,20.57
2023-08-03T04:32:33.994Z,20.58
2023-08-03T04:34:09.839Z,20.59
2023-08-03T04:36:00.133Z,20.60
2023-08-03T04:37:26.846Z,20.59
2023-08-03T04:39:00.281Z,20.59
2023-08-03T04:40:35.998Z,20.59
2023-08-03T04:42:21.217Z,20.57
2023-08-03T04:44:02.030Z,20.56
2023-08-03T04:45:51.576Z,20.55
2023-08-03T04:47:27.265Z,20.56
2023-08-03T04:49:14.494Z,20.54
2023-08-03T04:51:01.066Z,20.54
2023-08-03T04:52:30.776Z,20.52
2023-08-03T04:54:15.796Z,20.51
2023-08-03T04:56:00.033Z,20.53
2023-08-03T04:57:45.359Z,20.53
2023-08-03T04:59:22.080Z,20.56
2023-08-03T05:00:59.055Z,20.57
2023-08-03T05:02:33.000Z,20.58
2023-08-03T05:04:09.490Z,20.60
2023-08-03T05:05:45.120Z,20.61
2023-08-03T05:07:22.098Z,20.56
2023-08-03T05:09:07.141Z,20.63
2023-08-03T05:11:01.059Z,20.62
2023-08-03T05:12:48.717Z,20.61
2023-08-03T05:14:42.341Z,20.63
2023-08-03T05:16:27.782Z,20.67
2023-08-03T05:18:15.651Z,20.71
2023-08-03T05:19:45.145Z,20.74
2023-08-03T05:21:25.825Z,20.77
2023-08-03T05:22:47.619Z,20.81
2023-08-03T05:24:23.311Z,20.85
2023-08-03T05:26:05.116Z,20.89
2023-08-03T05:27:40.842Z,20.95
2023-08-03T05:29:14.542Z,20.98
2023-08-03T05:30:55.237Z,21.04
2023-08-03T05:32:24.616Z,21.08
2023-08-03T05:34:00.523Z,21.11
2023-08-03T05:35:53.793Z,21.16
2023-08-03T05:37:31.174Z,21.16
2023-08-03T05:39:11.771Z,21.13
2023-08-03T05:40:56.997Z,21.11
2023-08-03T05:42:38.186Z,21.10
2023-08-03T05:44:02.261Z,21.11
2023-08-03T05:45:35.848Z,21.13
2023-08-03T05:47:16.881Z,21.13
2023-08-03T05:48:51.054Z,21.16
2023-08-03T05:50:27.051Z,21.18
2023-08-03T05:52:10.257Z,21.18
2023-08-03T05:53:43.659Z,21.16
2023-08-03T05:55:19.802Z,21.14
2023-08-03T05:57:04.940Z,21.14
2023-08-03T05:58:38.585Z,21.13
2023-08-03T06:00:23.917Z,21.14
2023-08-03T06:01:45.778Z,21.10
2023-08-03T06:03:15.354Z,21.18
2023-08-03T06:05:00.374Z,21.22
2023-08-03T06:06:33.714Z,21.25
2023-08-03T06:08:07.537Z,21.28
2023-08-03T06:09:48.232Z,21.29
2023-08-03T06:11:36.545Z,21.32
2023-08-03T06:12:58.675Z,21.36
2023-08-03T06:14:35.517Z,21.36
2023-08-03T06:16:05.209Z,21.38
2023-08-03T06:17:50.465Z,21.37
2023-08-03T06:19:17.597Z,21.37
2023-08-03T06:21:02.563Z,21.37
2023-08-03T06:22:47.620Z,21.40
2023-08-03T06:24:37.301Z,21.44
2023-08-03T06:26:11.017Z,21.45
2023-08-03T06:27:56.322Z,21.47
2023-08-03T06:29:36.676Z,21.50
2023-08-03T06:31:10.366Z,21.49
2023-08-03T06:32:31.895Z,21.50
2023-08-03T06:34:17.045Z,21.51
2023-08-03T06:35:59.526Z,21.49
2023-08-03T06:37:21.565Z,21.48
2023-08-03T06:38:57.115Z,21.47
2023-08-03T06:40:19.235Z,21.45
2023-08-03T06:42:04.099Z,21.45
2023-08-03T06:43:35.671Z,21.45
2023-08-03T06:45:20.957Z,21.44
2023-08-03T06:46:54.471Z,21.43
2023-08-03T06:48:21.456Z,21.41
2023-08-03T06:49:56.859Z,21.39
2023-08-03T06:51:46.739Z,21.42
2023-08-03T06:53:30.794Z,21.40
2023-08-03T06:55:15.725Z,21.38
2023-08-03T06:57:00.852Z,21.36
2023-08-03T06:58:32.050Z,21.32
2023-08-03T07:00:12.732Z,21.30
2023-08-03T07:02:02.465Z,21.28
2023-08-03T07:03:43.452Z,21.27
2023-08-03T07:05:19.449Z,21.26
2023-08-03T07:06:56.359Z,21.23
2023-08-03T07:08:18.765Z,21.18
2023-08-03T07:09:54.501Z,21.11
2023-08-03T07:11:39.435Z,21.05
2023-08-03T07:13:24.743Z,21.02
2023-08-03T07:15:06.814Z,20.96
2023-08-03T07:16:52.943Z,20.92
2023-08-03T07:18:19.763Z,20.89
2023-08-03T07:19:43.869Z,20.84
2023-08-03T07:21:10.445Z,20.78
2023-08-03T07:22:55.223Z,20.72
2023-08-03T07:24:30.982Z,20.68
2023-08-03T07:26:04.580Z,20.63
2023-08-03T07:27:45.224Z,20.63
2023-08-03T07:29:26.250Z,20.64
2023-08-03T07:30:59.756Z,20.59
2023-08-03T07:32:44.663Z,20.53
2023-08-03T07:34:16.642Z,20.48
2023-08-03T07:35:47.740Z,20.39
2023-08-03T07:37:23.607Z,20.35
2023-08-03T07:39:08.736Z,20.29
2023-08-03T07:40:42.282Z,20.27
2023-08-03T07:42:23.170Z,20.27
2023-08-03T07:43:49.327Z,20.27
2023-08-03T07:46:59.035Z,20.28
2023-08-03T07:48:44.105Z,20.31
2023-08-03T07:50:25.391Z,20.30
2023-08-03T07:52:00.916Z,20.34
2023-08-03T07:53:46.170Z,20.36
2023-08-03T07:55:31.515Z,20.38
2023-08-03T07:57:16.638Z,20.41
2023-08-03T07:59:01.396Z,20.45
2023-08-03T08:00:37.887Z,20.46
2023-08-03T08:02:32.439Z,20.47
2023-08-03T08:04:07.930Z,20.50
2023-08-03T08:05:41.090Z,20.52
2023-08-03T08:07:14.921Z,20.54
2023-08-03T08:08:48.718Z,20.55
2023-08-03T08:10:22.219Z,20.56
2023-08-03T08:11:55.813Z,20.58
2023-08-03T08:13:45.599Z,20.58
2023-08-03T08:15:30.875Z,20.52
2023-08-03T08:17:13.919Z,20.59
2023-08-03T08:18:47.804Z,20.59
2023-08-03T08:20:32.720Z,20.60
2023-08-03T08:22:17.226Z,20.62
2023-08-03T08:23:58.736Z,20.62
2023-08-03T08:25:53.518Z,20.61
2023-08-03T08:27:39.293Z,20.59
2023-08-03T08:29:12.979Z,20.60
2023-08-03T08:30:46.260Z,20.61
2023-08-03T08:32:31.531Z,20.63
2023-08-03T08:34:05.240Z,20.64
2023-08-03T08:35:50.610Z,20.67
2023-08-03T08:37:36.875Z,20.68
2023-08-03T08:39:22.250Z,20.68
2023-08-03T08:40:44.012Z,20.70
2023-08-03T08:42:17.683Z,20.72
2023-08-03T08:43:51.065Z,20.74
2023-08-03T08:45:26.632Z,20.77
2023-08-03T08:47:12.192Z,20.77
2023-08-03T08:59:34.748Z,20.76
2023-08-03T09:01:20.434Z,20.80
2023-08-03T09:02:41.990Z,20.79
2023-08-03T09:07:19.109Z,20.77
2023-08-03T09:08:50.473Z,20.74
2023-08-03T09:10:23.772Z,20.73
2023-08-03T09:11:50.346Z,20.70
2023-08-03T09:13:35.436Z,20.67
2023-08-03T09:14:59.458Z,20.64
2023-08-03T09:16:38.217Z,20.65
2023-08-03T09:18:19.567Z,20.65
2023-08-03T09:24:45.230Z,20.65
2023-08-03T09:26:09.516Z,20.69
2023-08-03T09:29:28.512Z,20.69
2023-08-03T09:31:03.726Z,20.66
2023-08-03T09:34:42.836Z,20.60
2023-08-03T09:37:55.739Z,20.64
2023-08-03T09:39:42.041Z,20.61
2023-08-03T09:41:27.387Z,20.59
2023-08-03T09:42:51.522Z,20.64
2023-08-03T09:44:27.355Z,20.69
2023-08-03T09:45:49.217Z,20.74
2023-08-03T09:47:26.561Z,20.75
2023-08-03T09:50:27.343Z,20.78
2023-08-03T09:53:40.340Z,20.74
2023-08-03T09:55:13.884Z,20.71
2023-08-03T09:58:32.989Z,20.60
2023-08-03T09:59:59.421Z,20.57
2023-08-03T10:01:32.980Z,20.56
2023-08-03T10:03:13.796Z,20.56
2023-08-03T10:04:51.628Z,20.62
2023-08-03T10:06:17.963Z,20.68
2023-08-03T10:07:54.461Z,20.73
2023-08-03T10:09:27.983Z,20.77
2023-08-03T10:11:03.708Z,20.81
2023-08-03T10:12:39.331Z,20.85
2023-08-03T10:14:04.401Z,20.88
2023-08-03T10:15:38.608Z,20.88
2023-08-03T10:17:12.504Z,20.86
2023-08-03T10:20:28.504Z,20.84
2023-08-03T10:22:13.957Z,20.81
2023-08-03T10:23:39.703Z,20.82
2023-08-03T10:25:13.101Z,20.82
2023-08-03T10:26:49.127Z,20.84
2023-08-03T10:28:13.840Z,20.83
2023-08-03T10:29:38.351Z,20.80
2023-08-03T10:31:29.493Z,20.82
2023-08-03T10:33:14.592Z,20.84
2023-08-03T10:34:59.848Z,20.84
2023-08-03T10:36:53.916Z,20.88
2023-08-03T10:38:30.580Z,20.92
2023-08-03T10:40:01.605Z,20.93
2023-08-03T10:41:42.925Z,20.99
2023-08-03T10:43:28.078Z,21.07
2023-08-03T10:45:09.252Z,21.12
2023-08-03T10:46:54.465Z,21.16
2023-08-03T10:48:19.110Z,21.17
2023-08-03T10:49:58.001Z,21.19
2023-08-03T10:51:19.975Z,21.19
2023-08-03T10:52:55.480Z,21.14
2023-08-03T10:54:21.880Z,21.10
2023-08-03T10:55:56.579Z,21.06
2023-08-03T10:57:37.560Z,21.03
2023-08-03T10:59:10.942Z,20.99
2023-08-03T11:00:35.171Z,20.99
2023-08-03T11:02:28.848Z,20.97
2023-08-03T11:03:52.918Z,21.05
2023-08-03T11:05:38.468Z,21.04
2023-08-03T11:07:00.391Z,21.04
2023-08-03T11:08:29.943Z,21.08
2023-08-03T11:10:03.219Z,21.14
2023-08-03T11:11:36.686Z,21.22
2023-08-03T11:13:10.204Z,21.35
2023-08-03T11:14:46.502Z,21.46
2023-08-03T11:16:35.921Z,21.58
2023-08-03T11:17:59.601Z,21.66
2023-08-03T11:19:21.950Z,21.65
2023-08-03T11:20:55.446Z,21.61
2023-08-03T11:22:22.145Z,21.61
2023-08-03T11:23:55.586Z,21.63
2023-08-03T11:25:21.367Z,21.62
2023-08-03T11:27:02.047Z,21.64
2023-08-03T11:28:50.315Z,21.74
2023-08-03T11:30:31.179Z,21.86
2023-08-03T11:31:53.231Z,22.01
2023-08-03T11:33:38.523Z,22.13
2023-08-03T11:35:12.314Z,22.15
2023-08-03T11:36:45.924Z,22.12
2023-08-03T11:38:23.411Z,22.20
2023-08-03T11:40:05.064Z,22.24
2023-08-03T11:41:38.512Z,22.20
2023-08-03T11:43:11.779Z,22.14
2023-08-03T11:44:57.451Z,22.04
2023-08-03T11:46:43.452Z,21.94
2023-08-03T11:48:28.520Z,21.90
2023-08-03T11:50:04.137Z,21.89
2023-08-03T11:51:37.531Z,21.84
2023-08-03T11:53:24.312Z,21.81
2023-08-03T11:54:46.088Z,21.79
2023-08-03T11:56:12.857Z,21.79
2023-08-03T11:59:33.480Z,21.77
2023-08-03T12:01:18.789Z,21.78
2023-08-03T12:02:45.723Z,21.86
2023-08-03T12:04:22.789Z,21.95
2023-08-03T12:06:06.437Z,22.23
2023-08-03T12:09:29.922Z,23.05
2023-08-03T12:11:05.935Z,23.43
2023-08-03T12:12:36.028Z,23.85
2023-08-03T12:14:12.602Z,24.29
2023-08-03T12:15:46.177Z,24.61
2023-08-03T12:17:29.159Z,24.99
2023-08-03T12:19:13.536Z,25.22
2023-08-03T12:22:27.576Z,25.55
2023-08-03T12:24:03.133Z,25.68
2023-08-03T12:25:54.028Z,25.82
2023-08-03T12:27:30.254Z,26.12
2023-08-03T12:29:14.850Z,26.33
2023-08-03T12:30:57.306Z,26.53
2023-08-03T12:32:42.408Z,26.42
2023-08-03T12:34:15.616Z,26.33
2023-08-03T12:35:49.173Z,26.55
2023-08-03T12:37:24.850Z,26.49
2023-08-03T12:38:49.051Z,26.50
2023-08-03T12:40:10.838Z,26.23
2023-08-03T12:41:44.365Z,25.85
2023-08-03T12:43:25.785Z,25.41
2023-08-03T12:44:59.388Z,25.42
2023-08-03T12:46:25.991Z,25.49
2023-08-03T12:47:59.605Z,25.62
2023-08-03T12:49:37.179Z,25.57
2023-08-03T12:51:10.724Z,25.51
2023-08-03T12:52:55.522Z,25.39
2023-08-03T12:54:44.691Z,25.21
2023-08-03T12:56:08.586Z,24.96
2023-08-03T12:57:42.083Z,24.72
2023-08-03T12:59:16.100Z,24.53
2023-08-03T13:00:45.761Z,24.31
2023-08-03T13:02:19.820Z,24.28
2023-08-03T13:03:53.234Z,24.21
2023-08-03T13:05:40.486Z,24.08
2023-08-03T13:07:10.698Z,23.96
2023-08-03T13:08:40.542Z,23.81
2023-08-03T13:10:22.315Z,23.76
2023-08-03T13:11:52.020Z,23.73
2023-08-03T13:13:25.679Z,23.72
2023-08-03T13:15:10.480Z,23.79
2023-08-03T13:16:34.864Z,23.83
2023-08-03T13:18:08.854Z,23.75
2023-08-03T13:19:35.085Z,23.71
2023-08-03T13:21:29.445Z,23.71
2023-08-03T13:23:00.881Z,23.74
2023-08-03T13:24:36.459Z,23.74
2023-08-03T13:26:10.124Z,23.69
2023-08-03T13:27:38.891Z,23.66
2023-08-03T13:29:05.488Z,23.76
2023-08-03T13:30:27.328Z,24.03
2023-08-03T13:32:02.263Z,24.62
2023-08-03T13:33:37.235Z,25.34
2023-08-03T13:35:06.653Z,25.80
2023-08-03T13:36:51.465Z,26.32
2023-08-03T13:38:36.455Z,26.45
2023-08-03T13:40:10.159Z,26.63
2023-08-03T13:41:45.379Z,26.95
2023-08-03T13:43:34.733Z,27.31
2023-08-03T13:45:08.176Z,27.70
2023-08-03T13:46:30.222Z,27.59
2023-08-03T13:48:04.179Z,27.48
2023-08-03T13:49:45.294Z,27.64
2023-08-03T13:51:21.002Z,28.00
2023-08-03T13:52:42.653Z,28.01
2023-08-03T13:54:31.975Z,28.08
2023-08-03T13:56:07.413Z,28.29
2023-08-03T13:59:19.709Z,28.36
2023-08-03T14:01:14.255Z,28.49
2023-08-03T14:04:23.086Z,29.07
2023-08-03T14:09:25.122Z,29.65
2023-08-03T14:19:09.277Z,29.50
2023-08-03T14:22:17.027Z,29.53
2023-08-03T14:23:40.748Z,29.62
2023-08-03T14:26:46.555Z,30.00
2023-08-03T14:29:45.958Z,29.98
2023-08-03T14:31:30.516Z,29.98
2023-08-03T14:33:06.135Z,30.17
2023-08-03T14:36:13.985Z,30.54
2023-08-03T14:37:47.527Z,30.56
2023-08-03T14:39:24.111Z,30.69
2023-08-03T14:40:53.770Z,30.49
2023-08-03T14:42:40.492Z,30.01
2023-08-03T14:44:20.452Z,29.40
2023-08-03T14:45:47.367Z,29.37
2023-08-03T14:47:12.120Z,29.47
2023-08-03T14:48:38.342Z,29.54
2023-08-03T14:50:20.149Z,29.66
2023-08-03T14:53:51.520Z,29.65
2023-08-03T14:56:33.357Z,29.72
2023-08-03T14:57:23.955Z,29.18
2023-08-03T14:58:55.392Z,29.27
2023-08-03T15:00:19.160Z,29.22
2023-08-03T15:01:52.737Z,29.37
2023-08-03T15:03:30.072Z,29.45
2023-08-03T15:05:15.877Z,29.70
2023-08-03T15:06:51.759Z,29.88
2023-08-03T15:08:16.132Z,30.03
2023-08-03T15:09:49.584Z,30.32
2023-08-03T15:11:34.855Z,30.78
2023-08-03T15:13:10.910Z,31.15
2023-08-03T15:16:28.525Z,31.44
2023-08-03T15:17:58.512Z,31.41
2023-08-03T15:21:17.578Z,31.33
2023-08-03T15:22:59.500Z,31.33
2023-08-03T15:24:33.826Z,31.45
2023-08-03T15:26:07.711Z,31.67
2023-08-03T15:27:57.947Z,31.76
2023-08-03T15:29:28.121Z,31.74
2023-08-03T15:34:05.663Z,30.30
2023-08-03T15:35:42.990Z,29.75
2023-08-03T15:37:17.084Z,29.65
2023-08-03T15:38:39.541Z,29.46
2023-08-03T15:40:15.664Z,28.91
2023-08-03T15:42:02.187Z,28.45
2023-08-03T15:43:40.749Z,27.93
2023-08-03T15:45:24.722Z,27.50
2023-08-03T15:50:27.420Z,26.45
2023-08-03T15:52:09.670Z,26.15
2023-08-03T15:53:49.866Z,25.97
2023-08-03T15:57:27.390Z,26.09
2023-08-03T15:58:51.162Z,26.15
2023-08-03T16:00:27.082Z,26.09
2023-08-03T16:01:56.349Z,26.05
2023-08-03T16:03:25.808Z,25.97
2023-08-03T16:05:01.636Z,25.80
2023-08-03T16:06:37.469Z,25.61
2023-08-03T16:08:01.384Z,25.50
2023-08-03T16:09:37.059Z,25.38
2023-08-03T16:11:01.114Z,25.40
2023-08-03T16:12:41.546Z,25.42
2023-08-03T16:14:31.956Z,25.45
2023-08-03T16:15:54.169Z,25.42
2023-08-03T16:17:30.121Z,25.31
2023-08-03T16:19:05.625Z,25.22
2023-08-03T16:20:37.492Z,25.19
2023-08-03T16:22:11.131Z,25.14
2023-08-03T16:23:32.546Z,25.07
2023-08-03T16:25:18.286Z,25.02
2023-08-03T16:27:01.499Z,24.96
2023-08-03T16:28:37.343Z,24.87
2023-08-03T16:30:23.029Z,24.80
2023-08-03T16:32:15.730Z,24.68
2023-08-03T16:35:31.984Z,24.68
2023-08-03T16:37:12.903Z,24.66
2023-08-03T16:38:53.356Z,24.63
2023-08-03T16:40:27.107Z,24.60
2023-08-03T16:41:50.887Z,24.56
2023-08-03T16:43:36.327Z,24.51
2023-08-03T16:45:21.814Z,24.48
2023-08-03T16:47:07.248Z,24.43
2023-08-03T16:48:50.177Z,24.39
2023-08-03T16:50:23.888Z,24.34
2023-08-03T16:52:08.730Z,24.32
2023-08-03T16:53:42.508Z,24.27
2023-08-03T16:55:37.506Z,24.25
2023-08-03T16:57:27.533Z,24.19
2023-08-03T16:59:21.521Z,24.15
2023-08-03T17:00:55.361Z,24.12
2023-08-03T17:02:24.740Z,24.12
2023-08-03T17:04:04.885Z,24.14
2023-08-03T17:05:57.225Z,24.09
2023-08-03T17:07:43.283Z,24.07
2023-08-03T17:09:28.340Z,24.08
2023-08-03T17:11:01.938Z,24.09
2023-08-03T17:12:26.347Z,24.12
2023-08-03T17:13:59.670Z,24.10
2023-08-03T17:15:21.847Z,24.08
2023-08-03T17:16:54.836Z,24.06
2023-08-03T17:18:26.893Z,24.04
2023-08-03T17:20:11.791Z,24.01
2023-08-03T17:21:44.776Z,23.96
2023-08-03T17:23:18.166Z,23.95
2023-08-03T17:24:59.178Z,23.91
2023-08-03T17:26:25.395Z,23.88
2023-08-03T17:27:49.661Z,23.84
2023-08-03T17:29:23.803Z,23.82
2023-08-03T17:30:59.580Z,23.81
2023-08-03T17:32:24.457Z,23.75
2023-08-03T17:33:46.241Z,23.73
2023-08-03T17:35:19.936Z,23.71
2023-08-03T17:36:54.726Z,23.64
2023-08-03T17:38:28.042Z,23.60
2023-08-03T17:40:01.467Z,23.54
2023-08-03T17:41:47.844Z,23.52
2023-08-03T17:43:42.521Z,23.46
2023-08-03T17:45:18.282Z,23.40
2023-08-03T17:46:53.576Z,23.36
2023-08-03T17:48:29.876Z,23.32
2023-08-03T17:50:06.643Z,23.26
2023-08-03T17:51:40.181Z,23.21
2023-08-03T17:53:25.231Z,23.18
2023-08-03T17:55:10.256Z,23.16
2023-08-03T17:56:34.751Z,23.11
2023-08-03T17:58:10.122Z,23.06
2023-08-03T17:59:54.900Z,23.01
2023-08-03T18:01:28.793Z,22.96
2023-08-03T18:03:02.215Z,22.91
2023-08-03T18:04:35.650Z,22.84
2023-08-03T18:06:09.254Z,22.80
2023-08-03T18:08:03.536Z,22.75
2023-08-03T18:09:33.954Z,22.72
2023-08-03T18:11:07.643Z,22.66
2023-08-03T18:12:52.430Z,22.60
2023-08-03T18:14:27.396Z,22.57
2023-08-03T18:16:02.782Z,22.52
2023-08-03T18:17:29.340Z,22.49
2023-08-03T18:18:52.907Z,22.46
2023-08-03T18:20:26.760Z,22.44
2023-08-03T18:21:52.321Z,22.39
2023-08-03T18:23:14.379Z,22.35
2023-08-03T18:24:47.650Z,22.33
2023-08-03T18:26:33.036Z,22.28
2023-08-03T18:27:59.628Z,22.23
2023-08-03T18:29:36.680Z,22.20
2023-08-03T18:31:10.502Z,22.17
2023-08-03T18:32:55.912Z,22.12
2023-08-03T18:34:20.198Z,22.07
2023-08-03T18:35:54.069Z,22.03
2023-08-03T18:37:17.026Z,22.00
2023-08-03T18:38:43.693Z,21.96
2023-08-03T18:40:29.129Z,21.94
2023-08-03T18:42:15.052Z,21.91
2023-08-03T18:43:55.422Z,21.86
2023-08-03T18:45:22.126Z,21.82
2023-08-03T18:46:55.593Z,21.80
2023-08-03T18:48:31.676Z,21.74
2023-08-03T18:50:05.065Z,21.68
2023-08-03T18:51:40.876Z,21.70
2023-08-03T18:53:09.809Z,21.66
2023-08-03T18:54:33.970Z,21.62
2023-08-03T18:56:00.427Z,21.57
2023-08-03T18:57:24.933Z,21.53
2023-08-03T18:58:46.619Z,21.50
2023-08-03T19:00:22.123Z,21.46
2023-08-03T19:01:45.876Z,21.41
2023-08-03T19:03:07.845Z,21.39
2023-08-03T19:04:34.107Z,21.34
2023-08-03T19:05:56.180Z,21.30
2023-08-03T19:07:20.590Z,21.27
2023-08-03T19:08:41.999Z,21.23
2023-08-03T19:10:15.513Z,21.19
2023-08-03T19:11:56.467Z,21.15
2023-08-03T19:13:30.079Z,21.10
2023-08-03T19:14:51.710Z,21.07
2023-08-03T19:16:13.817Z,21.05
2023-08-03T19:17:50.110Z,21.01
2023-08-03T19:19:14.665Z,20.97
2023-08-03T19:20:36.699Z,20.94
2023-08-03T19:22:10.297Z,20.91
2023-08-03T19:23:32.237Z,20.89
2023-08-03T19:25:01.592Z,20.86
2023-08-03T19:26:35.171Z,20.84
2023-08-03T19:29:35.459Z,20.80
2023-08-03T19:31:11.054Z,20.80
2023-08-03T19:32:51.860Z,20.79
2023-08-03T19:34:34.171Z,20.76
2023-08-03T19:35:58.523Z,20.75
2023-08-03T19:37:33.478Z,20.72
2023-08-03T19:39:06.756Z,20.71
2023-08-03T19:40:28.496Z,20.69
2023-08-03T19:42:05.296Z,20.65
2023-08-03T19:43:31.765Z,20.63
2023-08-03T19:45:08.425Z,20.62
2023-08-03T19:46:49.140Z,20.59
2023-08-03T19:48:30.371Z,20.56
2023-08-03T20:00:51.647Z,20.31
2023-08-03T20:07:37.906Z,20.22
2023-08-03T20:09:12.445Z,20.20
2023-08-03T20:10:56.104Z,20.09
2023-08-03T20:14:05.608Z,20.08
2023-08-03T20:15:52.035Z,20.06
2023-08-03T20:20:20.376Z,20.01
2023-08-03T20:21:54.421Z,19.99
2023-08-03T20:23:35.176Z,19.98
2023-08-03T20:25:02.751Z,19.97
2023-08-03T20:26:44.085Z,19.97
2023-08-03T20:28:26.115Z,19.95
2023-08-03T20:30:00.562Z,19.94
2023-08-03T20:31:23.550Z,19.94
2023-08-03T20:33:08.360Z,19.91
2023-08-03T20:34:30.131Z,19.89
2023-08-03T20:37:35.364Z,19.81
2023-08-03T20:40:48.426Z,19.79
2023-08-03T20:43:39.267Z,19.73
2023-08-03T20:45:01.358Z,19.70
2023-08-03T20:49:31.327Z,19.64
2023-08-03T20:51:04.688Z,19.62
2023-08-03T20:52:29.000Z,19.61
2023-08-03T20:55:37.812Z,19.58
2023-08-03T20:56:59.820Z,19.56
2023-08-03T20:58:34.087Z,19.54
2023-08-03T21:01:44.190Z,19.52
2023-08-03T21:03:18.023Z,19.49
2023-08-03T21:04:51.831Z,19.50
2023-08-03T21:06:14.043Z,19.48
2023-08-03T21:07:40.435Z,19.47
2023-08-03T21:09:10.119Z,19.46
2023-08-03T21:11:59.362Z,19.41
2023-08-03T21:13:21.351Z,19.38
2023-08-03T21:14:49.837Z,19.37
2023-08-03T21:16:13.955Z,19.34
2023-08-03T21:17:50.638Z,19.32
2023-08-03T21:19:20.066Z,19.28
2023-08-03T21:20:41.911Z,19.29
2023-08-03T21:22:11.041Z,19.27
2023-08-03T21:23:40.443Z,19.26
2023-08-03T21:25:14.260Z,19.26
2023-08-03T21:26:38.745Z,19.23
2023-08-03T21:28:13.239Z,19.22
2023-08-03T21:29:35.140Z,19.21
2023-08-03T21:30:58.769Z,19.21
2023-08-03T21:32:22.274Z,19.19
2023-08-03T21:33:46.362Z,19.18
2023-08-03T21:35:10.675Z,19.17
2023-08-03T21:36:32.600Z,19.15
2023-08-03T21:38:01.803Z,19.14
2023-08-03T21:39:31.112Z,19.12
2023-08-03T21:40:54.964Z,19.09
2023-08-03T21:42:29.168Z,19.07
2023-08-03T21:44:09.534Z,19.05
2023-08-03T21:45:34.058Z,19.05
2023-08-03T21:46:57.825Z,19.04
2023-08-03T21:48:26.696Z,19.03
2023-08-03T21:49:48.630Z,19.02
2023-08-03T21:51:18.501Z,19.01
2023-08-03T21:52:42.778Z,18.99
2023-08-03T21:54:19.093Z,18.99
2023-08-03T21:55:40.419Z,18.96
2023-08-03T21:57:09.693Z,18.93
2023-08-03T21:58:31.655Z,18.89
2023-08-03T21:59:55.219Z,18.88
2023-08-03T22:01:17.234Z,18.86
2023-08-03T22:02:41.255Z,18.84
2023-08-03T22:04:03.722Z,18.84
2023-08-03T22:05:25.987Z,18.82
2023-08-03T22:06:48.586Z,18.82
2023-08-03T22:08:11.800Z,18.80
2023-08-03T22:09:35.696Z,18.77
2023-08-03T22:10:57.733Z,18.75
2023-08-03T22:12:19.939Z,18.73
2023-08-03T22:13:53.057Z,18.70
2023-08-03T22:15:17.533Z,18.67
2023-08-03T22:16:41.982Z,18.64
2023-08-03T22:18:04.417Z,18.62
2023-08-03T22:19:45.223Z,18.60